createdAt,value
2023-04-24T00:00:35.737Z,5.78
2023-04-24T00:03:04.278Z,3.80
2023-04-24T00:05:31.681Z,2.83
2023-04-24T00:07:59.175Z,1.88
2023-04-24T00:10:26.498Z,2.70
2023-04-24T00:12:54.016Z,1.02
2023-04-24T00:15:21.536Z,2.35
2023-04-24T00:17:48.818Z,1.52
2023-04-24T00:20:16.858Z,1.38
2023-04-24T00:22:44.239Z,3.67
2023-04-24T00:25:11.530Z,2.30
2023-04-24T00:27:39.754Z,4.55
2023-04-24T00:30:07.405Z,3.00
2023-04-24T00:32:34.871Z,2.42
2023-04-24T00:49:48.682Z,4.97
2023-04-24T00:52:18.691Z,3.10
2023-04-24T00:54:46.764Z,1.75
2023-04-24T00:57:14.682Z,1.80
2023-04-24T00:59:42.535Z,3.10
2023-04-24T01:02:12.628Z,4.03
2023-04-24T01:04:40.229Z,2.33
2023-04-24T01:07:11.659Z,4.35
2023-04-24T01:09:44.829Z,4.22
2023-04-24T01:12:12.684Z,5.90
2023-04-24T01:14:40.222Z,3.80
2023-04-24T01:17:08.485Z,5.68
2023-04-24T01:19:35.915Z,3.92
2023-04-24T01:22:06.072Z,5.35
2023-04-24T01:24:34.890Z,5.25
2023-04-24T01:27:02.365Z,3.95
2023-04-24T01:29:29.902Z,5.10
2023-04-24T01:31:59.360Z,6.20
2023-04-24T01:34:27.202Z,3.42
2023-04-24T01:36:54.745Z,6.15
2023-04-24T01:39:24.179Z,4.10
2023-04-24T01:41:51.533Z,3.53
2023-04-24T01:44:20.588Z,3.20
2023-04-24T01:46:49.136Z,3.72
2023-04-24T01:49:16.851Z,4.65
2023-04-24T01:51:46.091Z,2.45
2023-04-24T01:54:13.934Z,3.67
2023-04-24T01:56:46.146Z,2.33
2023-04-24T01:59:14.037Z,3.58
2023-04-24T02:01:41.524Z,3.30
2023-04-24T02:04:09.984Z,2.20
2023-04-24T02:06:37.694Z,2.17
2023-04-24T02:09:05.274Z,2.22
2023-04-24T02:11:32.690Z,3.28
2023-04-24T02:14:00.057Z,3.72
2023-04-24T02:16:27.503Z,5.93
2023-04-24T02:18:54.905Z,8.00
2023-04-24T02:21:22.158Z,4.20
2023-04-24T02:23:49.626Z,4.50
2023-04-24T02:26:17.397Z,6.10
2023-04-24T02:28:45.278Z,7.55
2023-04-24T02:31:12.786Z,4.85
2023-04-24T02:33:40.299Z,4.60
2023-04-24T02:36:07.866Z,3.80
2023-04-24T02:38:35.266Z,4.72
2023-04-24T02:41:03.296Z,6.60
2023-04-24T02:43:30.863Z,4.68
2023-04-24T02:45:58.306Z,6.35
2023-04-24T02:48:25.653Z,5.05
2023-04-24T02:50:53.046Z,4.65
2023-04-24T02:53:20.482Z,5.93
2023-04-24T02:55:47.886Z,6.68
2023-04-24T02:58:15.313Z,5.88
2023-04-24T03:00:42.905Z,6.28
2023-04-24T03:03:10.773Z,4.25
2023-04-24T03:05:38.739Z,7.13
2023-04-24T03:08:07.193Z,7.32
2023-04-24T03:10:34.684Z,7.03
2023-04-24T03:13:02.032Z,7.43
2023-04-24T03:15:29.725Z,5.85
2023-04-24T03:17:57.155Z,6.63
2023-04-24T03:20:25.667Z,6.30
2023-04-24T03:22:53.853Z,6.68
2023-04-24T03:25:21.326Z,5.65
2023-04-24T03:27:49.097Z,7.78
2023-04-24T03:30:34.275Z,5.93
2023-04-24T03:33:02.636Z,5.53
2023-04-24T03:35:34.279Z,6.20
2023-04-24T03:38:05.667Z,8.25
2023-04-24T03:41:03.111Z,6.80
2023-04-24T03:43:40.864Z,7.78
2023-04-24T03:46:10.382Z,6.30
2023-04-24T03:48:43.077Z,9.70
2023-04-24T03:51:11.457Z,7.35
2023-04-24T03:53:41.867Z,5.35
2023-04-24T03:58:38.440Z,9.45
2023-04-24T04:01:06.618Z,7.53
2023-04-24T04:03:48.375Z,5.78
2023-04-24T04:06:22.565Z,5.78
2023-04-24T04:08:52.776Z,4.53
2023-04-24T04:14:14.713Z,2.63
2023-04-24T04:16:46.908Z,1.95
2023-04-24T04:19:14.832Z,2.63
2023-04-24T04:21:42.675Z,2.40
2023-04-24T04:24:23.548Z,1.77
2023-04-24T04:26:53.220Z,2.83
2023-04-24T04:29:28.452Z,1.63
2023-04-24T04:31:56.489Z,4.63
2023-04-24T04:34:24.674Z,2.53
2023-04-24T04:36:53.728Z,2.83
2023-04-24T04:39:40.335Z,2.13
2023-04-24T04:42:12.053Z,3.35
2023-04-24T04:44:42.100Z,2.50
2023-04-24T04:47:13.673Z,2.88
2023-04-24T04:49:42.432Z,1.75
2023-04-24T04:52:18.489Z,3.38
2023-04-24T04:54:48.856Z,3.30
2023-04-24T04:57:16.470Z,4.25
2023-04-24T04:59:44.268Z,1.98
2023-04-24T05:02:17.816Z,3.28
2023-04-24T05:04:46.370Z,5.68
2023-04-24T05:07:14.319Z,3.10
2023-04-24T05:09:46.693Z,2.75
2023-04-24T05:12:14.266Z,2.67
2023-04-24T05:14:49.515Z,4.70
2023-04-24T05:17:17.567Z,2.38
2023-04-24T05:19:46.313Z,3.85
2023-04-24T05:22:14.996Z,2.38
2023-04-24T05:24:49.761Z,1.83
2023-04-24T05:27:43.476Z,3.65
2023-04-24T05:30:15.677Z,3.60
2023-04-24T05:32:43.091Z,6.43
2023-04-24T05:35:10.669Z,8.57
2023-04-24T05:37:38.044Z,9.95
2023-04-24T05:40:06.529Z,13.60
2023-04-24T05:42:34.077Z,16.58
2023-04-24T05:45:01.435Z,23.15
2023-04-24T05:47:29.098Z,26.92
2023-04-24T05:49:56.481Z,20.50
2023-04-24T05:52:24.097Z,20.58
2023-04-24T05:54:51.895Z,17.95
2023-04-24T05:57:23.515Z,21.83
2023-04-24T05:59:58.062Z,24.23
2023-04-24T06:02:27.234Z,29.05
2023-04-24T06:04:55.145Z,25.50
2023-04-24T06:07:22.825Z,26.85
2023-04-24T06:09:50.152Z,26.02
2023-04-24T06:12:17.448Z,26.23
2023-04-24T06:15:08.043Z,25.98
2023-04-24T06:18:05.569Z,24.17
2023-04-24T06:20:33.248Z,27.10
2023-04-24T06:23:01.120Z,22.38
2023-04-24T06:25:28.682Z,23.13
2023-04-24T06:27:56.747Z,25.23
2023-04-24T06:30:24.681Z,17.38
2023-04-24T06:32:52.355Z,29.85
2023-04-24T06:35:19.691Z,22.00
2023-04-24T06:37:47.677Z,23.80
2023-04-24T06:40:15.093Z,22.75
2023-04-24T06:42:43.448Z,17.85
2023-04-24T06:45:11.689Z,20.70
2023-04-24T06:47:39.318Z,22.55
2023-04-24T06:50:06.880Z,20.33
2023-04-24T06:52:34.235Z,29.00
2023-04-24T06:55:03.286Z,20.33
2023-04-24T06:57:31.117Z,38.63
2023-04-24T06:59:58.426Z,21.23
2023-04-24T07:02:26.971Z,23.85
2023-04-24T07:04:54.894Z,23.50
2023-04-24T07:07:24.249Z,26.70
2023-04-24T07:09:52.930Z,23.27
2023-04-24T07:12:21.615Z,28.17
2023-04-24T07:14:49.100Z,17.48
2023-04-24T07:17:16.513Z,24.98
2023-04-24T07:19:44.193Z,21.20
2023-04-24T07:22:17.621Z,21.00
2023-04-24T07:24:47.941Z,22.23
2023-04-24T07:27:16.163Z,29.50
2023-04-24T07:29:44.206Z,24.20
2023-04-24T07:32:12.026Z,17.83
2023-04-24T07:34:39.520Z,22.17
2023-04-24T07:37:07.141Z,20.65
2023-04-24T07:39:34.643Z,19.17
2023-04-24T07:42:02.757Z,17.67
2023-04-24T07:44:30.141Z,21.23
2023-04-24T07:46:57.948Z,15.07
2023-04-24T07:49:25.534Z,15.35
2023-04-24T07:51:52.764Z,18.13
2023-04-24T07:54:20.154Z,18.77
2023-04-24T07:56:47.546Z,20.77
2023-04-24T07:59:14.732Z,16.67
2023-04-24T08:01:42.160Z,13.13
2023-04-24T08:04:09.672Z,12.23
2023-04-24T08:06:37.358Z,18.17
2023-04-24T08:09:04.749Z,11.82
2023-04-24T08:11:33.147Z,15.52
2023-04-24T08:14:00.539Z,13.43
2023-04-24T08:16:27.774Z,14.15
2023-04-24T08:18:55.328Z,14.77
2023-04-24T08:21:22.734Z,9.95
2023-04-24T08:23:50.419Z,11.32
2023-04-24T08:26:18.355Z,17.75
2023-04-24T08:28:45.763Z,10.05
2023-04-24T08:31:13.163Z,11.93
2023-04-24T08:33:41.921Z,12.88
2023-04-24T08:36:09.595Z,11.20
2023-04-24T08:38:36.879Z,13.90
2023-04-24T08:41:05.738Z,11.73
2023-04-24T08:43:35.394Z,13.38
2023-04-24T08:46:06.060Z,11.70
2023-04-24T08:48:35.872Z,9.30
2023-04-24T08:51:04.745Z,9.38
2023-04-24T08:53:32.358Z,13.70
2023-04-24T09:01:59.814Z,7.03
2023-04-24T09:04:27.624Z,10.48
2023-04-24T09:06:59.810Z,17.50
2023-04-24T09:09:27.474Z,5.35
2023-04-24T09:11:56.554Z,11.38
2023-04-24T09:14:24.867Z,11.38
2023-04-24T09:16:52.807Z,8.13
2023-04-24T09:19:20.551Z,6.65
2023-04-24T09:21:48.425Z,8.10
2023-04-24T09:24:25.462Z,6.05
2023-04-24T09:27:05.400Z,6.88
2023-04-24T09:29:34.045Z,10.98
2023-04-24T09:32:01.700Z,8.27
2023-04-24T09:40:28.824Z,7.63
2023-04-24T09:51:49.825Z,2.65
2023-04-24T09:54:18.358Z,3.33
2023-04-24T09:56:46.563Z,5.03
2023-04-24T09:59:14.587Z,5.78
2023-04-24T10:01:45.885Z,3.90
2023-04-24T10:04:24.453Z,5.45
2023-04-24T10:06:52.513Z,7.07
2023-04-24T10:09:20.545Z,5.90
2023-04-24T10:11:48.860Z,4.07
2023-04-24T10:14:17.267Z,10.50
2023-04-24T10:16:45.412Z,4.70
2023-04-24T10:19:14.102Z,8.82
2023-04-24T10:21:43.600Z,6.70
2023-04-24T10:24:11.096Z,5.32
2023-04-24T10:26:38.440Z,9.32
2023-04-24T10:29:10.788Z,6.53
2023-04-24T10:31:39.286Z,6.03
2023-04-24T10:34:07.537Z,7.63
2023-04-24T10:36:35.936Z,4.93
2023-04-24T10:39:05.808Z,11.53
2023-04-24T10:41:33.168Z,4.47
2023-04-24T10:44:13.690Z,6.47
2023-04-24T10:46:44.300Z,5.18
2023-04-24T10:49:11.604Z,7.55
2023-04-24T10:51:51.852Z,8.63
2023-04-24T10:54:29.500Z,4.82
2023-04-24T10:57:23.357Z,3.38
2023-04-24T10:59:51.844Z,1.80
2023-04-24T11:02:19.998Z,6.27
2023-04-24T11:04:47.628Z,1.98
2023-04-24T11:07:15.775Z,3.58
2023-04-24T11:09:44.217Z,4.45
2023-04-24T11:12:15.070Z,10.88
2023-04-24T11:14:58.078Z,5.65
2023-04-24T11:17:38.008Z,4.20
2023-04-24T11:20:23.069Z,4.55
2023-04-24T11:25:23.584Z,6.78
2023-04-24T11:27:51.372Z,4.93
2023-04-24T11:30:19.844Z,6.72
2023-04-24T11:32:50.813Z,6.97
2023-04-24T11:35:19.220Z,6.32
2023-04-24T11:42:57.700Z,10.63
2023-04-24T11:45:26.356Z,8.02
2023-04-24T11:47:53.783Z,9.52
2023-04-24T11:50:23.710Z,7.28
2023-04-24T11:52:51.980Z,5.82
2023-04-24T11:55:19.895Z,6.73
2023-04-24T11:57:48.257Z,10.90
2023-04-24T12:00:22.748Z,8.70
2023-04-24T12:02:51.470Z,8.23
2023-04-24T12:05:27.157Z,4.90
2023-04-24T12:07:55.418Z,7.38
2023-04-24T12:10:23.151Z,11.30
2023-04-24T12:12:52.273Z,11.20
2023-04-24T12:17:46.960Z,9.38
2023-04-24T12:20:14.909Z,8.45
2023-04-24T12:22:49.198Z,11.30
2023-04-24T12:25:17.546Z,18.27
2023-04-24T12:27:48.579Z,11.40
2023-04-24T12:30:16.934Z,16.00
2023-04-24T12:32:48.282Z,10.00
2023-04-24T12:35:21.190Z,10.85
2023-04-24T12:37:48.429Z,10.70
2023-04-24T12:40:16.510Z,16.27
2023-04-24T12:42:47.757Z,11.25
2023-04-24T12:45:15.371Z,13.65
2023-04-24T12:47:43.080Z,13.75
2023-04-24T12:50:11.442Z,12.90
2023-04-24T12:52:39.391Z,13.07
2023-04-24T12:55:10.688Z,12.15
2023-04-24T12:57:38.742Z,16.48
2023-04-24T13:00:09.451Z,13.20
2023-04-24T13:02:37.458Z,13.50
2023-04-24T13:05:05.197Z,17.30
2023-04-24T13:07:32.510Z,8.95
2023-04-24T13:09:59.762Z,13.50
2023-04-24T13:12:27.511Z,13.85
2023-04-24T13:14:55.268Z,7.53
2023-04-24T13:17:22.538Z,12.48
2023-04-24T13:19:51.909Z,12.38
2023-04-24T13:22:19.888Z,13.23
2023-04-24T13:24:49.709Z,13.77
2023-04-24T13:27:17.549Z,13.73
2023-04-24T13:29:44.845Z,10.02
2023-04-24T13:32:12.254Z,10.02
2023-04-24T13:34:39.663Z,10.02
2023-04-24T13:37:07.379Z,11.00
2023-04-24T13:39:34.679Z,10.50
2023-04-24T13:42:04.398Z,13.32
2023-04-24T13:44:32.170Z,14.02
2023-04-24T13:47:00.004Z,13.38
2023-04-24T13:49:27.852Z,10.98
2023-04-24T13:51:55.826Z,16.77
2023-04-24T13:54:24.521Z,12.43
2023-04-24T13:56:52.836Z,13.32
2023-04-24T13:59:21.639Z,14.57
2023-04-24T14:01:49.260Z,12.25
2023-04-24T14:04:16.874Z,15.52
2023-04-24T14:06:45.548Z,9.77
2023-04-24T14:09:13.801Z,12.90
2023-04-24T14:11:41.647Z,11.90
2023-04-24T14:14:09.216Z,10.40
2023-04-24T14:16:36.685Z,11.20
2023-04-24T14:19:04.032Z,15.98
2023-04-24T14:21:31.462Z,10.63
2023-04-24T14:23:58.759Z,12.18
2023-04-24T14:26:26.017Z,15.00
2023-04-24T14:28:58.051Z,15.52
2023-04-24T14:31:31.401Z,14.05
2023-04-24T14:33:58.811Z,12.02
2023-04-24T14:36:26.144Z,12.10
2023-04-24T14:38:53.368Z,14.85
2023-04-24T14:41:21.047Z,13.25
2023-04-24T14:43:48.526Z,11.00
2023-04-24T14:46:16.554Z,11.90
2023-04-24T14:48:43.892Z,10.25
2023-04-24T14:51:11.200Z,8.45
2023-04-24T14:53:38.462Z,10.50
2023-04-24T14:56:06.309Z,11.63
2023-04-24T14:58:34.061Z,13.48
2023-04-24T15:01:01.277Z,14.23
2023-04-24T15:03:28.717Z,10.30
2023-04-24T15:05:56.434Z,21.15
2023-04-24T15:08:23.849Z,16.73
2023-04-24T15:10:51.160Z,13.85
2023-04-24T15:13:18.513Z,12.73
2023-04-24T15:15:48.557Z,16.80
2023-04-24T15:18:15.975Z,13.50
2023-04-24T15:20:43.388Z,15.10
2023-04-24T15:23:10.860Z,18.15
2023-04-24T15:25:39.201Z,12.05
2023-04-24T15:28:06.969Z,15.23
2023-04-24T15:30:34.453Z,18.23
2023-04-24T15:33:02.745Z,11.57
2023-04-24T15:35:31.285Z,11.82
2023-04-24T15:37:58.584Z,10.18
2023-04-24T15:40:25.915Z,11.10
2023-04-24T15:42:53.271Z,14.23
2023-04-24T15:45:20.821Z,12.82
2023-04-24T15:47:48.236Z,13.43
2023-04-24T15:50:17.051Z,13.85
2023-04-24T15:52:44.805Z,12.82
2023-04-24T15:55:12.656Z,16.33
2023-04-24T15:57:40.748Z,15.25
2023-04-24T16:00:10.223Z,14.35
2023-04-24T16:02:40.997Z,14.57
2023-04-24T16:05:08.787Z,13.48
2023-04-24T16:07:36.379Z,15.57
2023-04-24T16:10:03.669Z,12.80
2023-04-24T16:12:31.014Z,15.82
2023-04-24T16:14:58.438Z,16.60
2023-04-24T16:17:26.081Z,14.90
2023-04-24T16:19:53.428Z,11.50
2023-04-24T16:22:20.729Z,18.13
2023-04-24T16:24:48.110Z,13.77
2023-04-24T16:27:16.016Z,10.95
2023-04-24T16:29:43.316Z,15.48
2023-04-24T16:32:11.208Z,16.95
2023-04-24T16:34:38.575Z,13.07
2023-04-24T16:37:06.719Z,20.73
2023-04-24T16:39:34.008Z,14.88
2023-04-24T16:42:01.778Z,16.58
2023-04-24T16:44:29.143Z,13.88
2023-04-24T16:46:56.957Z,13.60
2023-04-24T16:49:24.586Z,12.52
2023-04-24T16:51:51.986Z,15.27
2023-04-24T16:54:19.408Z,16.80
2023-04-24T16:56:46.708Z,18.20
2023-04-24T16:59:14.064Z,15.32
2023-04-24T17:01:41.330Z,16.80
2023-04-24T17:04:08.948Z,14.30
2023-04-24T17:06:36.268Z,16.58
2023-04-24T17:09:04.342Z,11.60
2023-04-24T17:11:32.212Z,12.15
2023-04-24T17:13:59.962Z,16.20
2023-04-24T17:16:27.544Z,14.82
2023-04-24T17:18:54.974Z,14.68
2023-04-24T17:21:22.362Z,18.38
2023-04-24T17:23:49.738Z,17.95
2023-04-24T17:26:17.120Z,18.40
2023-04-24T17:28:44.390Z,14.57
2023-04-24T17:31:11.699Z,11.07
2023-04-24T17:33:38.961Z,10.25
2023-04-24T17:36:07.260Z,12.45
2023-04-24T17:38:34.823Z,11.60
2023-04-24T17:43:46.575Z,13.45
2023-04-24T17:46:14.089Z,10.02
2023-04-24T17:48:41.457Z,10.18
2023-04-24T17:51:13.140Z,14.60
2023-04-24T17:53:42.329Z,10.98
2023-04-24T17:56:09.792Z,12.85
2023-04-24T17:58:37.192Z,13.00
2023-04-24T18:01:04.456Z,13.23
2023-04-24T18:03:31.864Z,7.80
2023-04-24T18:05:59.308Z,7.03
2023-04-24T18:08:26.581Z,5.15
2023-04-24T18:10:53.903Z,5.65
2023-04-24T18:13:21.373Z,4.88
2023-04-24T18:15:48.633Z,6.07
2023-04-24T18:18:17.768Z,7.72
2023-04-24T18:20:45.041Z,7.38
2023-04-24T18:23:12.364Z,11.48
2023-04-24T18:25:39.606Z,8.57
2023-04-24T18:28:06.917Z,7.95
2023-04-24T18:30:34.734Z,11.68
2023-04-24T18:33:02.154Z,8.25
2023-04-24T18:35:29.431Z,9.20
2023-04-24T18:37:56.672Z,9.57
2023-04-24T18:40:23.900Z,9.38
2023-04-24T18:42:51.411Z,5.78
2023-04-24T18:45:18.641Z,9.52
2023-04-24T18:47:46.159Z,6.60
2023-04-24T18:50:14.692Z,6.72
2023-04-24T18:52:42.600Z,8.55
2023-04-24T18:55:10.211Z,9.60
2023-04-24T18:57:37.451Z,8.23
2023-04-24T19:00:05.103Z,8.63
2023-04-24T19:02:34.131Z,3.78
2023-04-24T19:05:01.580Z,5.53
2023-04-24T19:07:29.381Z,5.18
2023-04-24T19:09:56.823Z,7.68
2023-04-24T19:12:24.031Z,6.00
2023-04-24T19:14:52.053Z,6.13
2023-04-24T19:17:24.309Z,7.68
2023-04-24T19:19:52.162Z,6.90
2023-04-24T19:22:20.801Z,4.50
2023-04-24T19:24:48.219Z,6.25
2023-04-24T19:27:15.587Z,4.13
2023-04-24T19:29:42.999Z,6.82
2023-04-24T19:32:10.567Z,9.20
2023-04-24T19:34:40.457Z,5.97
2023-04-24T19:37:08.504Z,7.30
2023-04-24T19:39:35.850Z,6.35
2023-04-24T19:42:07.274Z,9.27
2023-04-24T19:44:34.872Z,6.35
2023-04-24T19:47:02.194Z,8.40
2023-04-24T19:49:29.444Z,7.72
2023-04-24T19:51:56.688Z,5.85
2023-04-24T19:54:24.498Z,6.93
2023-04-24T19:56:51.793Z,8.60
2023-04-24T19:59:19.086Z,4.75
2023-04-24T20:01:46.946Z,9.00
2023-04-24T20:04:14.512Z,9.45
2023-04-24T20:06:41.942Z,6.72
2023-04-24T20:09:09.352Z,5.85
2023-04-24T20:11:36.624Z,6.78
2023-04-24T20:14:03.955Z,6.40
2023-04-24T20:16:31.532Z,5.72
2023-04-24T20:18:59.419Z,7.68
2023-04-24T20:21:26.677Z,7.25
2023-04-24T20:23:54.016Z,9.07
2023-04-24T20:26:21.521Z,9.73
2023-04-24T20:28:49.087Z,6.68
2023-04-24T20:31:16.724Z,7.07
2023-04-24T20:33:45.543Z,7.93
2023-04-24T20:36:13.099Z,5.47
2023-04-24T20:38:40.385Z,14.73
2023-04-24T20:41:08.842Z,9.75
2023-04-24T20:43:36.146Z,7.63
2023-04-24T20:46:03.566Z,5.97
2023-04-24T20:48:31.052Z,6.05
2023-04-24T20:50:58.368Z,7.22
2023-04-24T20:53:25.659Z,4.57
2023-04-24T20:55:52.998Z,7.78
2023-04-24T20:58:21.993Z,6.80
2023-04-24T21:00:49.615Z,8.85
2023-04-24T21:03:17.082Z,9.23
2023-04-24T21:05:44.323Z,7.47
2023-04-24T21:08:11.565Z,9.70
2023-04-24T21:10:38.790Z,11.13
2023-04-24T21:13:06.123Z,9.27
2023-04-24T21:15:34.213Z,13.02
2023-04-24T21:18:02.029Z,8.63
2023-04-24T21:20:29.352Z,12.50
2023-04-24T21:22:56.621Z,9.70
2023-04-24T21:25:23.901Z,9.40
2023-04-24T21:27:51.173Z,11.52
2023-04-24T21:30:18.990Z,13.68
2023-04-24T21:32:46.310Z,14.48
2023-04-24T21:35:13.655Z,9.45
2023-04-24T21:37:40.974Z,14.77
2023-04-24T21:40:11.128Z,12.32
2023-04-24T21:42:38.928Z,14.50
2023-04-24T21:45:06.550Z,13.00
2023-04-24T21:47:33.782Z,12.13
2023-04-24T21:50:01.060Z,14.13
2023-04-24T21:52:28.325Z,9.68
2023-04-24T21:54:55.619Z,11.60
2023-04-24T21:57:23.070Z,15.48
2023-04-24T21:59:50.364Z,14.93
2023-04-24T22:02:17.834Z,12.68
2023-04-24T22:04:45.206Z,15.57
2023-04-24T22:07:12.825Z,13.25
2023-04-24T22:09:40.076Z,13.90
2023-04-24T22:12:07.326Z,17.17
2023-04-24T22:14:34.573Z,14.52
2023-04-24T22:17:03.019Z,12.43
2023-04-24T22:19:30.301Z,11.67
2023-04-24T22:21:57.583Z,14.07
2023-04-24T22:24:24.823Z,17.80
2023-04-24T22:26:52.086Z,13.23
2023-04-24T22:29:19.336Z,11.07
2023-04-24T22:31:46.586Z,12.18
2023-04-24T22:34:14.046Z,11.88
2023-04-24T22:36:41.361Z,13.00
2023-04-24T22:39:10.501Z,14.20
2023-04-24T22:41:37.749Z,12.02
2023-04-24T22:44:05.204Z,14.43
2023-04-24T22:46:32.528Z,13.00
2023-04-24T22:48:59.834Z,11.52
2023-04-24T22:51:27.255Z,14.35
2023-04-24T22:53:56.372Z,15.63
2023-04-24T22:56:23.770Z,12.32
2023-04-24T22:58:51.072Z,12.10
2023-04-24T23:01:18.360Z,10.60
2023-04-24T23:03:45.712Z,12.82
2023-04-24T23:06:13.584Z,13.85
2023-04-24T23:08:40.889Z,18.17
2023-04-24T23:11:08.154Z,15.25
2023-04-24T23:13:35.374Z,15.90
2023-04-24T23:16:02.995Z,14.50
2023-04-24T23:18:30.643Z,21.70
2023-04-24T23:20:58.148Z,15.95
2023-04-24T23:23:25.484Z,20.30
2023-04-24T23:25:52.670Z,21.23
2023-04-24T23:28:19.869Z,22.10
2023-04-24T23:30:47.287Z,15.48
2023-04-24T23:33:14.616Z,21.13
2023-04-24T23:35:41.929Z,18.63
2023-04-24T23:38:09.317Z,22.15
2023-04-24T23:40:36.530Z,12.38
2023-04-24T23:43:07.458Z,17.75
2023-04-24T23:45:35.615Z,19.33
2023-04-24T23:48:04.546Z,11.63
2023-04-24T23:50:32.051Z,12.88
2023-04-24T23:52:59.302Z,21.98
2023-04-24T23:55:26.559Z,21.42
2023-04-24T23:57:53.785Z,13.45
